sensor_id;sensor_type;location;lat;lon;timestamp;P1;durP1;ratioP1;P2;durP2;ratioP2
84021;SDS011;74108;48.636;9.492;2023-12-04T00:01:10;10.15;;;4.50;;
84021;SDS011;74108;48.636;9.492;2023-12-04T00:03:35;12.95;;;4.88;;
84021;SDS011;74108;48.636;9.492;2023-12-04T00:06:00;9.23;;;4.55;;
84021;SDS011;74108;48.636;9.492;2023-12-04T00:08:26;14.52;;;5.63;;
84021;SDS011;74108;48.636;9.492;2023-12-04T00:10:51;14.40;;;4.97;;
84021;SDS011;74108;48.636;9.492;2023-12-04T00:13:17;12.15;;;5.30;;
84021;SDS011;74108;48.636;9.492;2023-12-04T00:15:42;13.45;;;5.00;;
84021;SDS011;74108;48.636;9.492;2023-12-04T00:18:09;13.38;;;5.50;;
84021;SDS011;74108;48.636;9.492;2023-12-04T00:20:34;12.48;;;5.20;;
84021;SDS011;74108;48.636;9.492;2023-12-04T00:22:59;12.63;;;5.75;;
84021;SDS011;74108;48.636;9.492;2023-12-04T00:25:25;9.95;;;4.53;;
84021;SDS011;74108;48.636;9.492;2023-12-04T00:27:50;10.50;;;5.32;;
84021;SDS011;74108;48.636;9.492;2023-12-04T00:30:15;10.57;;;4.40;;
84021;SDS011;74108;48.636;9.492;2023-12-04T00:32:41;15.73;;;5.18;;
84021;SDS011;74108;48.636;9.492;2023-12-04T00:35:06;12.80;;;4.97;;
84021;SDS011;74108;48.636;9.492;2023-12-04T00:37:32;12.57;;;5.30;;
84021;SDS011;74108;48.636;9.492;2023-12-04T00:40:02;12.05;;;4.43;;
84021;SDS011;74108;48.636;9.492;2023-12-04T00:42:28;10.80;;;4.30;;
84021;SDS011;74108;48.636;9.492;2023-12-04T00:44:53;11.07;;;4.82;;
84021;SDS011;74108;48.636;9.492;2023-12-04T00:47:19;10.57;;;4.07;;
84021;SDS011;74108;48.636;9.492;2023-12-04T00:49:44;11.18;;;4.40;;
84021;SDS011;74108;48.636;9.492;2023-12-04T00:52:09;12.00;;;4.07;;
84021;SDS011;74108;48.636;9.492;2023-12-04T00:54:35;10.68;;;4.05;;
84021;SDS011;74108;48.636;9.492;2023-12-04T00:57:04;11.55;;;5.00;;
84021;SDS011;74108;48.636;9.492;2023-12-04T00:59:29;11.85;;;5.10;;
84021;SDS011;74108;48.636;9.492;2023-12-04T01:01:54;8.00;;;3.75;;
84021;SDS011;74108;48.636;9.492;2023-12-04T01:04:20;15.48;;;5.40;;
84021;SDS011;74108;48.636;9.492;2023-12-04T01:06:45;10.35;;;4.80;;
84021;SDS011;74108;48.636;9.492;2023-12-04T01:09:11;10.95;;;4.25;;
84021;SDS011;74108;48.636;9.492;2023-12-04T01:11:37;12.27;;;5.22;;
84021;SDS011;74108;48.636;9.492;2023-12-04T01:14:03;13.27;;;4.38;;
84021;SDS011;74108;48.636;9.492;2023-12-04T01:16:28;15.95;;;5.22;;
84021;SDS011;74108;48.636;9.492;2023-12-04T01:18:53;12.18;;;4.88;;
84021;SDS011;74108;48.636;9.492;2023-12-04T01:21:19;11.77;;;4.88;;
84021;SDS011;74108;48.636;9.492;2023-12-04T01:23:44;11.07;;;4.60;;
84021;SDS011;74108;48.636;9.492;2023-12-04T01:26:10;11.55;;;4.80;;
84021;SDS011;74108;48.636;9.492;2023-12-04T01:28:35;12.75;;;4.30;;
84021;SDS011;74108;48.636;9.492;2023-12-04T01:31:00;11.95;;;4.70;;
84021;SDS011;74108;48.636;9.492;2023-12-04T01:33:26;10.73;;;4.90;;
84021;SDS011;74108;48.636;9.492;2023-12-04T01:35:51;12.88;;;4.55;;
84021;SDS011;74108;48.636;9.492;2023-12-04T01:38:17;11.10;;;4.65;;
84021;SDS011;74108;48.636;9.492;2023-12-04T01:40:43;11.45;;;4.93;;
84021;SDS011;74108;48.636;9.492;2023-12-04T01:43:08;12.68;;;4.82;;
84021;SDS011;74108;48.636;9.492;2023-12-04T01:45:33;9.88;;;4.63;;
84021;SDS011;74108;48.636;9.492;2023-12-04T01:47:59;15.68;;;6.45;;
84021;SDS011;74108;48.636;9.492;2023-12-04T01:50:24;11.13;;;4.68;;
84021;SDS011;74108;48.636;9.492;2023-12-04T01:52:50;10.57;;;5.07;;
84021;SDS011;74108;48.636;9.492;2023-12-04T01:55:18;11.85;;;5.10;;
84021;SDS011;74108;48.636;9.492;2023-12-04T01:57:44;7.57;;;4.32;;
84021;SDS011;74108;48.636;9.492;2023-12-04T02:00:10;10.57;;;4.32;;
84021;SDS011;74108;48.636;9.492;2023-12-04T02:02:40;11.52;;;4.97;;
84021;SDS011;74108;48.636;9.492;2023-12-04T02:05:10;10.88;;;4.10;;
84021;SDS011;74108;48.636;9.492;2023-12-04T02:07:36;10.25;;;4.35;;
84021;SDS011;74108;48.636;9.492;2023-12-04T02:10:02;9.77;;;4.18;;
84021;SDS011;74108;48.636;9.492;2023-12-04T02:12:28;9.55;;;4.25;;
84021;SDS011;74108;48.636;9.492;2023-12-04T02:14:54;10.65;;;4.82;;
84021;SDS011;74108;48.636;9.492;2023-12-04T02:17:19;12.88;;;4.63;;
84021;SDS011;74108;48.636;9.492;2023-12-04T02:19:47;13.73;;;5.45;;
84021;SDS011;74108;48.636;9.492;2023-12-04T02:22:12;7.63;;;4.25;;
84021;SDS011;74108;48.636;9.492;2023-12-04T02:24:37;11.30;;;5.35;;
84021;SDS011;74108;48.636;9.492;2023-12-04T02:29:46;8.63;;;3.55;;
84021;SDS011;74108;48.636;9.492;2023-12-04T02:32:17;12.30;;;3.83;;
84021;SDS011;74108;48.636;9.492;2023-12-04T02:34:45;13.88;;;5.38;;
84021;SDS011;74108;48.636;9.492;2023-12-04T02:37:13;9.73;;;4.22;;
84021;SDS011;74108;48.636;9.492;2023-12-04T02:39:40;9.32;;;4.10;;
84021;SDS011;74108;48.636;9.492;2023-12-04T02:42:06;10.25;;;4.50;;
84021;SDS011;74108;48.636;9.492;2023-12-04T02:44:31;9.73;;;3.60;;
84021;SDS011;74108;48.636;9.492;2023-12-04T02:46:58;11.20;;;4.07;;
84021;SDS011;74108;48.636;9.492;2023-12-04T02:49:23;7.60;;;3.72;;
84021;SDS011;74108;48.636;9.492;2023-12-04T02:51:49;12.48;;;4.47;;
84021;SDS011;74108;48.636;9.492;2023-12-04T02:54:14;9.73;;;4.57;;
84021;SDS011;74108;48.636;9.492;2023-12-04T02:56:40;9.90;;;4.63;;
84021;SDS011;74108;48.636;9.492;2023-12-04T02:59:05;12.63;;;4.90;;
84021;SDS011;74108;48.636;9.492;2023-12-04T03:01:30;10.57;;;4.47;;
84021;SDS011;74108;48.636;9.492;2023-12-04T03:03:56;10.20;;;4.20;;
84021;SDS011;74108;48.636;9.492;2023-12-04T03:06:21;8.02;;;4.03;;
84021;SDS011;74108;48.636;9.492;2023-12-04T03:08:47;9.60;;;4.15;;
84021;SDS011;74108;48.636;9.492;2023-12-04T03:11:13;9.25;;;4.63;;
84021;SDS011;74108;48.636;9.492;2023-12-04T03:13:38;12.15;;;4.85;;
84021;SDS011;74108;48.636;9.492;2023-12-04T03:16:03;10.60;;;4.68;;
84021;SDS011;74108;48.636;9.492;2023-12-04T03:18:29;12.57;;;4.32;;
84021;SDS011;74108;48.636;9.492;2023-12-04T03:20:55;9.90;;;4.05;;
84021;SDS011;74108;48.636;9.492;2023-12-04T03:23:20;9.77;;;4.20;;
84021;SDS011;74108;48.636;9.492;2023-12-04T03:25:45;9.00;;;4.32;;
84021;SDS011;74108;48.636;9.492;2023-12-04T03:28:11;9.30;;;3.78;;
84021;SDS011;74108;48.636;9.492;2023-12-04T03:30:38;11.27;;;4.30;;
84021;SDS011;74108;48.636;9.492;2023-12-04T03:33:03;10.88;;;4.30;;
84021;SDS011;74108;48.636;9.492;2023-12-04T03:35:29;10.57;;;4.07;;
84021;SDS011;74108;48.636;9.492;2023-12-04T03:37:54;13.82;;;5.05;;
84021;SDS011;74108;48.636;9.492;2023-12-04T03:40:20;13.18;;;4.68;;
84021;SDS011;74108;48.636;9.492;2023-12-04T03:42:45;9.98;;;3.85;;
84021;SDS011;74108;48.636;9.492;2023-12-04T03:45:11;8.77;;;3.63;;
84021;SDS011;74108;48.636;9.492;2023-12-04T03:47:36;15.20;;;4.55;;
84021;SDS011;74108;48.636;9.492;2023-12-04T03:50:02;10.80;;;4.55;;
84021;SDS011;74108;48.636;9.492;2023-12-04T03:52:27;10.75;;;4.55;;
84021;SDS011;74108;48.636;9.492;2023-12-04T03:54:52;8.40;;;4.18;;
84021;SDS011;74108;48.636;9.492;2023-12-04T03:57:27;17.77;;;7.47;;
84021;SDS011;74108;48.636;9.492;2023-12-04T04:00:00;20.08;;;8.32;;
84021;SDS011;74108;48.636;9.492;2023-12-04T04:02:25;12.38;;;4.30;;
84021;SDS011;74108;48.636;9.492;2023-12-04T04:04:50;7.78;;;4.25;;
84021;SDS011;74108;48.636;9.492;2023-12-04T04:07:16;10.13;;;4.18;;
84021;SDS011;74108;48.636;9.492;2023-12-04T04:12:10;7.88;;;3.63;;
84021;SDS011;74108;48.636;9.492;2023-12-04T04:14:35;10.60;;;3.42;;
84021;SDS011;74108;48.636;9.492;2023-12-04T04:17:00;9.55;;;4.15;;
84021;SDS011;74108;48.636;9.492;2023-12-04T04:19:26;9.15;;;3.83;;
84021;SDS011;74108;48.636;9.492;2023-12-04T04:21:51;11.38;;;4.30;;
84021;SDS011;74108;48.636;9.492;2023-12-04T04:24:17;11.57;;;4.82;;
84021;SDS011;74108;48.636;9.492;2023-12-04T04:26:42;10.10;;;4.43;;
84021;SDS011;74108;48.636;9.492;2023-12-04T04:29:07;12.23;;;5.57;;
84021;SDS011;74108;48.636;9.492;2023-12-04T04:31:34;10.07;;;4.75;;
84021;SDS011;74108;48.636;9.492;2023-12-04T04:34:00;12.80;;;5.35;;
84021;SDS011;74108;48.636;9.492;2023-12-04T04:36:25;15.27;;;5.47;;
84021;SDS011;74108;48.636;9.492;2023-12-04T04:38:50;14.55;;;5.85;;
84021;SDS011;74108;48.636;9.492;2023-12-04T04:41:16;11.30;;;4.82;;
84021;SDS011;74108;48.636;9.492;2023-12-04T04:43:41;14.35;;;6.50;;
84021;SDS011;74108;48.636;9.492;2023-12-04T04:46:07;11.15;;;5.45;;
84021;SDS011;74108;48.636;9.492;2023-12-04T04:48:32;11.38;;;5.10;;
84021;SDS011;74108;48.636;9.492;2023-12-04T04:50:58;12.77;;;6.03;;
84021;SDS011;74108;48.636;9.492;2023-12-04T04:53:23;13.35;;;5.35;;
84021;SDS011;74108;48.636;9.492;2023-12-04T04:55:48;10.20;;;5.05;;
84021;SDS011;74108;48.636;9.492;2023-12-04T04:58:14;12.48;;;5.45;;
84021;SDS011;74108;48.636;9.492;2023-12-04T05:00:39;13.32;;;5.22;;
84021;SDS011;74108;48.636;9.492;2023-12-04T05:03:05;12.07;;;5.57;;
84021;SDS011;74108;48.636;9.492;2023-12-04T05:05:30;10.80;;;4.82;;
84021;SDS011;74108;48.636;9.492;2023-12-04T05:07:55;13.15;;;5.30;;
84021;SDS011;74108;48.636;9.492;2023-12-04T05:10:21;14.13;;;5.82;;
84021;SDS011;74108;48.636;9.492;2023-12-04T05:12:46;11.05;;;4.95;;
84021;SDS011;74108;48.636;9.492;2023-12-04T05:15:12;13.27;;;5.78;;
84021;SDS011;74108;48.636;9.492;2023-12-04T05:17:37;14.00;;;5.80;;
84021;SDS011;74108;48.636;9.492;2023-12-04T05:20:02;11.98;;;5.18;;
84021;SDS011;74108;48.636;9.492;2023-12-04T05:22:28;14.63;;;5.80;;
84021;SDS011;74108;48.636;9.492;2023-12-04T05:24:53;11.48;;;5.80;;
84021;SDS011;74108;48.636;9.492;2023-12-04T05:27:19;17.75;;;5.35;;
84021;SDS011;74108;48.636;9.492;2023-12-04T05:29:44;14.95;;;6.30;;
84021;SDS011;74108;48.636;9.492;2023-12-04T05:32:10;16.90;;;6.38;;
84021;SDS011;74108;48.636;9.492;2023-12-04T05:34:35;13.57;;;5.53;;
84021;SDS011;74108;48.636;9.492;2023-12-04T05:37:00;13.80;;;5.78;;
84021;SDS011;74108;48.636;9.492;2023-12-04T05:39:26;14.02;;;5.85;;
84021;SDS011;74108;48.636;9.492;2023-12-04T05:41:51;13.98;;;5.53;;
84021;SDS011;74108;48.636;9.492;2023-12-04T05:44:16;14.93;;;5.97;;
84021;SDS011;74108;48.636;9.492;2023-12-04T05:46:42;13.52;;;5.63;;
84021;SDS011;74108;48.636;9.492;2023-12-04T05:49:07;12.98;;;6.13;;
84021;SDS011;74108;48.636;9.492;2023-12-04T05:51:33;13.52;;;5.60;;
84021;SDS011;74108;48.636;9.492;2023-12-04T05:53:58;15.98;;;6.13;;
84021;SDS011;74108;48.636;9.492;2023-12-04T05:56:23;14.20;;;5.43;;
84021;SDS011;74108;48.636;9.492;2023-12-04T05:58:49;14.63;;;5.28;;
84021;SDS011;74108;48.636;9.492;2023-12-04T06:01:14;14.20;;;6.47;;
84021;SDS011;74108;48.636;9.492;2023-12-04T06:03:40;13.35;;;6.03;;
84021;SDS011;74108;48.636;9.492;2023-12-04T06:06:06;10.70;;;5.15;;
84021;SDS011;74108;48.636;9.492;2023-12-04T06:08:31;11.63;;;5.88;;
84021;SDS011;74108;48.636;9.492;2023-12-04T06:10:57;13.35;;;5.45;;
84021;SDS011;74108;48.636;9.492;2023-12-04T06:13:22;15.20;;;6.22;;
84021;SDS011;74108;48.636;9.492;2023-12-04T06:15:48;11.50;;;5.15;;
84021;SDS011;74108;48.636;9.492;2023-12-04T06:18:14;11.98;;;5.60;;
84021;SDS011;74108;48.636;9.492;2023-12-04T06:20:40;15.68;;;5.38;;
84021;SDS011;74108;48.636;9.492;2023-12-04T06:23:05;13.45;;;5.97;;
84021;SDS011;74108;48.636;9.492;2023-12-04T06:25:31;14.85;;;6.65;;
84021;SDS011;74108;48.636;9.492;2023-12-04T06:27:56;12.73;;;5.68;;
84021;SDS011;74108;48.636;9.492;2023-12-04T06:30:22;13.75;;;5.45;;
84021;SDS011;74108;48.636;9.492;2023-12-04T06:32:48;14.13;;;5.90;;
84021;SDS011;74108;48.636;9.492;2023-12-04T06:35:13;14.02;;;5.97;;
84021;SDS011;74108;48.636;9.492;2023-12-04T06:37:40;13.23;;;6.05;;
84021;SDS011;74108;48.636;9.492;2023-12-04T06:40:06;11.98;;;5.68;;
84021;SDS011;74108;48.636;9.492;2023-12-04T06:42:34;16.63;;;6.43;;
84021;SDS011;74108;48.636;9.492;2023-12-04T06:45:00;12.18;;;5.70;;
84021;SDS011;74108;48.636;9.492;2023-12-04T06:47:26;14.82;;;5.72;;
84021;SDS011;74108;48.636;9.492;2023-12-04T06:49:56;14.60;;;6.40;;
84021;SDS011;74108;48.636;9.492;2023-12-04T06:52:21;12.10;;;5.70;;
84021;SDS011;74108;48.636;9.492;2023-12-04T06:54:46;15.45;;;6.53;;
84021;SDS011;74108;48.636;9.492;2023-12-04T06:57:12;18.13;;;7.00;;
84021;SDS011;74108;48.636;9.492;2023-12-04T06:59:39;14.18;;;6.90;;
84021;SDS011;74108;48.636;9.492;2023-12-04T07:02:07;15.00;;;6.28;;
84021;SDS011;74108;48.636;9.492;2023-12-04T07:04:33;19.75;;;6.88;;
84021;SDS011;74108;48.636;9.492;2023-12-04T07:06:58;20.85;;;7.20;;
84021;SDS011;74108;48.636;9.492;2023-12-04T07:09:29;20.65;;;7.63;;
84021;SDS011;74108;48.636;9.492;2023-12-04T07:11:59;17.80;;;7.00;;
84021;SDS011;74108;48.636;9.492;2023-12-04T07:14:24;15.30;;;6.72;;
84021;SDS011;74108;48.636;9.492;2023-12-04T07:16:50;18.77;;;6.82;;
84021;SDS011;74108;48.636;9.492;2023-12-04T07:19:15;15.48;;;6.53;;
84021;SDS011;74108;48.636;9.492;2023-12-04T07:21:41;17.65;;;6.80;;
84021;SDS011;74108;48.636;9.492;2023-12-04T07:24:07;15.32;;;6.03;;
84021;SDS011;74108;48.636;9.492;2023-12-04T07:26:33;14.73;;;6.55;;
84021;SDS011;74108;48.636;9.492;2023-12-04T07:28:59;17.92;;;7.07;;
84021;SDS011;74108;48.636;9.492;2023-12-04T07:31:25;15.70;;;6.82;;
84021;SDS011;74108;48.636;9.492;2023-12-04T07:33:52;16.80;;;6.70;;
84021;SDS011;74108;48.636;9.492;2023-12-04T07:36:20;16.83;;;6.35;;
84021;SDS011;74108;48.636;9.492;2023-12-04T07:38:46;14.05;;;6.60;;
84021;SDS011;74108;48.636;9.492;2023-12-04T07:41:11;16.08;;;6.45;;
84021;SDS011;74108;48.636;9.492;2023-12-04T07:43:37;16.98;;;6.50;;
84021;SDS011;74108;48.636;9.492;2023-12-04T07:46:02;15.82;;;6.20;;
84021;SDS011;74108;48.636;9.492;2023-12-04T07:48:28;13.63;;;6.10;;
84021;SDS011;74108;48.636;9.492;2023-12-04T07:50:55;14.13;;;5.68;;
84021;SDS011;74108;48.636;9.492;2023-12-04T07:53:20;20.98;;;6.20;;
84021;SDS011;74108;48.636;9.492;2023-12-04T07:55:45;15.85;;;5.63;;
84021;SDS011;74108;48.636;9.492;2023-12-04T07:58:13;17.95;;;5.88;;
84021;SDS011;74108;48.636;9.492;2023-12-04T08:00:38;14.60;;;5.57;;
84021;SDS011;74108;48.636;9.492;2023-12-04T08:03:04;21.60;;;7.97;;
84021;SDS011;74108;48.636;9.492;2023-12-04T08:05:29;14.38;;;6.15;;
84021;SDS011;74108;48.636;9.492;2023-12-04T08:07:56;14.25;;;6.25;;
84021;SDS011;74108;48.636;9.492;2023-12-04T08:10:22;15.70;;;5.85;;
84021;SDS011;74108;48.636;9.492;2023-12-04T08:12:48;15.35;;;6.80;;
84021;SDS011;74108;48.636;9.492;2023-12-04T08:15:13;22.67;;;9.73;;
84021;SDS011;74108;48.636;9.492;2023-12-04T08:17:39;14.15;;;5.88;;
84021;SDS011;74108;48.636;9.492;2023-12-04T08:20:04;14.82;;;6.35;;
84021;SDS011;74108;48.636;9.492;2023-12-04T08:22:31;16.83;;;6.13;;
84021;SDS011;74108;48.636;9.492;2023-12-04T08:24:56;13.90;;;6.38;;
84021;SDS011;74108;48.636;9.492;2023-12-04T08:27:23;15.07;;;6.63;;
84021;SDS011;74108;48.636;9.492;2023-12-04T08:29:49;14.57;;;6.63;;
84021;SDS011;74108;48.636;9.492;2023-12-04T08:32:15;16.63;;;6.63;;
84021;SDS011;74108;48.636;9.492;2023-12-04T08:34:40;14.40;;;6.30;;
84021;SDS011;74108;48.636;9.492;2023-12-04T08:37:05;15.75;;;6.20;;
84021;SDS011;74108;48.636;9.492;2023-12-04T08:39:31;14.52;;;6.07;;
84021;SDS011;74108;48.636;9.492;2023-12-04T08:41:56;15.43;;;6.57;;
84021;SDS011;74108;48.636;9.492;2023-12-04T08:44:22;14.27;;;5.90;;
84021;SDS011;74108;48.636;9.492;2023-12-04T08:46:48;12.77;;;6.05;;
84021;SDS011;74108;48.636;9.492;2023-12-04T08:49:14;14.57;;;6.25;;
84021;SDS011;74108;48.636;9.492;2023-12-04T08:51:39;17.35;;;6.68;;
84021;SDS011;74108;48.636;9.492;2023-12-04T08:54:06;20.92;;;7.90;;
84021;SDS011;74108;48.636;9.492;2023-12-04T08:56:32;14.93;;;7.28;;
84021;SDS011;74108;48.636;9.492;2023-12-04T08:58:57;18.67;;;7.53;;
84021;SDS011;74108;48.636;9.492;2023-12-04T09:01:23;15.93;;;7.20;;
84021;SDS011;74108;48.636;9.492;2023-12-04T09:03:48;15.32;;;6.70;;
84021;SDS011;74108;48.636;9.492;2023-12-04T09:06:13;17.52;;;6.72;;
84021;SDS011;74108;48.636;9.492;2023-12-04T09:08:40;17.15;;;7.30;;
84021;SDS011;74108;48.636;9.492;2023-12-04T09:11:06;21.25;;;9.35;;
84021;SDS011;74108;48.636;9.492;2023-12-04T09:13:32;18.90;;;8.02;;
84021;SDS011;74108;48.636;9.492;2023-12-04T09:15:59;22.08;;;8.45;;
84021;SDS011;74108;48.636;9.492;2023-12-04T09:18:24;18.83;;;8.38;;
84021;SDS011;74108;48.636;9.492;2023-12-04T09:20:50;19.10;;;8.93;;
84021;SDS011;74108;48.636;9.492;2023-12-04T09:23:15;19.45;;;7.47;;
84021;SDS011;74108;48.636;9.492;2023-12-04T09:25:41;18.20;;;6.88;;
84021;SDS011;74108;48.636;9.492;2023-12-04T09:28:06;14.73;;;6.95;;
84021;SDS011;74108;48.636;9.492;2023-12-04T09:30:33;16.35;;;7.50;;
84021;SDS011;74108;48.636;9.492;2023-12-04T09:32:59;16.80;;;7.05;;
84021;SDS011;74108;48.636;9.492;2023-12-04T09:35:24;21.10;;;7.72;;
84021;SDS011;74108;48.636;9.492;2023-12-04T09:37:50;24.33;;;7.90;;
84021;SDS011;74108;48.636;9.492;2023-12-04T09:40:15;18.00;;;8.70;;
84021;SDS011;74108;48.636;9.492;2023-12-04T09:42:41;20.67;;;8.25;;
84021;SDS011;74108;48.636;9.492;2023-12-04T09:45:07;24.02;;;10.70;;
84021;SDS011;74108;48.636;9.492;2023-12-04T09:47:34;18.70;;;8.65;;
84021;SDS011;74108;48.636;9.492;2023-12-04T09:49:59;19.73;;;9.20;;
84021;SDS011;74108;48.636;9.492;2023-12-04T09:52:26;16.75;;;7.15;;
84021;SDS011;74108;48.636;9.492;2023-12-04T09:54:52;18.55;;;7.93;;
84021;SDS011;74108;48.636;9.492;2023-12-04T09:57:18;18.92;;;8.32;;
84021;SDS011;74108;48.636;9.492;2023-12-04T09:59:44;18.73;;;8.13;;
84021;SDS011;74108;48.636;9.492;2023-12-04T10:02:10;21.20;;;9.20;;
84021;SDS011;74108;48.636;9.492;2023-12-04T10:04:36;20.08;;;8.95;;
84021;SDS011;74108;48.636;9.492;2023-12-04T10:07:02;17.85;;;8.60;;
84021;SDS011;74108;48.636;9.492;2023-12-04T10:09:29;19.90;;;9.25;;
84021;SDS011;74108;48.636;9.492;2023-12-04T10:11:58;19.17;;;8.88;;
84021;SDS011;74108;48.636;9.492;2023-12-04T10:14:23;17.98;;;7.72;;
84021;SDS011;74108;48.636;9.492;2023-12-04T10:16:50;16.58;;;8.13;;
84021;SDS011;74108;48.636;9.492;2023-12-04T10:19:22;22.58;;;8.95;;
84021;SDS011;74108;48.636;9.492;2023-12-04T10:21:54;18.20;;;8.15;;
84021;SDS011;74108;48.636;9.492;2023-12-04T10:26:52;17.48;;;7.47;;
84021;SDS011;74108;48.636;9.492;2023-12-04T10:29:17;17.10;;;7.38;;
84021;SDS011;74108;48.636;9.492;2023-12-04T10:31:43;16.88;;;8.02;;
84021;SDS011;74108;48.636;9.492;2023-12-04T10:34:10;18.00;;;8.27;;
84021;SDS011;74108;48.636;9.492;2023-12-04T10:36:36;19.40;;;8.35;;
84021;SDS011;74108;48.636;9.492;2023-12-04T10:39:02;18.30;;;8.15;;
84021;SDS011;74108;48.636;9.492;2023-12-04T10:41:30;15.27;;;7.43;;
84021;SDS011;74108;48.636;9.492;2023-12-04T10:46:25;16.60;;;8.20;;
84021;SDS011;74108;48.636;9.492;2023-12-04T10:48:51;16.63;;;7.80;;
84021;SDS011;74108;48.636;9.492;2023-12-04T10:51:18;18.15;;;8.32;;
84021;SDS011;74108;48.636;9.492;2023-12-04T10:53:44;21.02;;;8.98;;
84021;SDS011;74108;48.636;9.492;2023-12-04T10:56:10;17.50;;;8.35;;
84021;SDS011;74108;48.636;9.492;2023-12-04T10:58:43;17.70;;;8.27;;
84021;SDS011;74108;48.636;9.492;2023-12-04T11:01:11;17.25;;;8.27;;
84021;SDS011;74108;48.636;9.492;2023-12-04T11:03:40;18.63;;;8.70;;
84021;SDS011;74108;48.636;9.492;2023-12-04T11:06:09;18.92;;;8.55;;
84021;SDS011;74108;48.636;9.492;2023-12-04T11:08:36;17.08;;;8.35;;
84021;SDS011;74108;48.636;9.492;2023-12-04T11:11:04;17.45;;;7.85;;
84021;SDS011;74108;48.636;9.492;2023-12-04T11:13:34;20.92;;;8.88;;
84021;SDS011;74108;48.636;9.492;2023-12-04T11:16:06;17.23;;;7.88;;
84021;SDS011;74108;48.636;9.492;2023-12-04T11:18:36;15.82;;;8.00;;
84021;SDS011;74108;48.636;9.492;2023-12-04T11:21:07;13.63;;;7.63;;
84021;SDS011;74108;48.636;9.492;2023-12-04T11:23:34;18.50;;;8.63;;
84021;SDS011;74108;48.636;9.492;2023-12-04T11:26:00;19.83;;;9.35;;
84021;SDS011;74108;48.636;9.492;2023-12-04T11:28:28;19.60;;;9.23;;
84021;SDS011;74108;48.636;9.492;2023-12-04T11:30:55;18.52;;;9.50;;
84021;SDS011;74108;48.636;9.492;2023-12-04T11:33:21;15.10;;;7.53;;
84021;SDS011;74108;48.636;9.492;2023-12-04T11:35:46;18.38;;;9.68;;
84021;SDS011;74108;48.636;9.492;2023-12-04T11:38:14;21.45;;;9.73;;
84021;SDS011;74108;48.636;9.492;2023-12-04T11:40:41;16.10;;;8.95;;
84021;SDS011;74108;48.636;9.492;2023-12-04T11:43:24;20.55;;;9.13;;
84021;SDS011;74108;48.636;9.492;2023-12-04T11:45:53;19.13;;;7.82;;
84021;SDS011;74108;48.636;9.492;2023-12-04T11:48:22;18.85;;;8.52;;
84021;SDS011;74108;48.636;9.492;2023-12-04T11:50:49;14.25;;;7.35;;
84021;SDS011;74108;48.636;9.492;2023-12-04T11:53:15;16.80;;;7.05;;
84021;SDS011;74108;48.636;9.492;2023-12-04T11:55:41;14.68;;;8.05;;
84021;SDS011;74108;48.636;9.492;2023-12-04T11:58:10;16.55;;;7.55;;
84021;SDS011;74108;48.636;9.492;2023-12-04T12:00:36;13.43;;;6.93;;
84021;SDS011;74108;48.636;9.492;2023-12-04T12:03:06;15.27;;;7.55;;
84021;SDS011;74108;48.636;9.492;2023-12-04T12:05:34;15.82;;;7.60;;
84021;SDS011;74108;48.636;9.492;2023-12-04T12:08:01;15.38;;;7.57;;
84021;SDS011;74108;48.636;9.492;2023-12-04T12:10:28;17.15;;;8.45;;
84021;SDS011;74108;48.636;9.492;2023-12-04T12:12:54;16.42;;;7.93;;
84021;SDS011;74108;48.636;9.492;2023-12-04T12:15:20;16.65;;;7.15;;
84021;SDS011;74108;48.636;9.492;2023-12-04T12:17:46;17.90;;;7.53;;
84021;SDS011;74108;48.636;9.492;2023-12-04T12:20:12;13.85;;;7.30;;
84021;SDS011;74108;48.636;9.492;2023-12-04T12:22:39;16.10;;;7.65;;
84021;SDS011;74108;48.636;9.492;2023-12-04T12:25:07;14.55;;;7.78;;
84021;SDS011;74108;48.636;9.492;2023-12-04T12:27:33;16.33;;;7.70;;
84021;SDS011;74108;48.636;9.492;2023-12-04T12:29:59;16.63;;;7.70;;
84021;SDS011;74108;48.636;9.492;2023-12-04T12:32:25;15.00;;;6.95;;
84021;SDS011;74108;48.636;9.492;2023-12-04T12:34:52;16.27;;;7.20;;
84021;SDS011;74108;48.636;9.492;2023-12-04T12:37:19;15.18;;;7.30;;
84021;SDS011;74108;48.636;9.492;2023-12-04T12:39:45;18.58;;;8.02;;
84021;SDS011;74108;48.636;9.492;2023-12-04T12:42:11;17.27;;;7.95;;
84021;SDS011;74108;48.636;9.492;2023-12-04T12:44:39;15.85;;;7.88;;
84021;SDS011;74108;48.636;9.492;2023-12-04T12:47:06;12.52;;;6.72;;
84021;SDS011;74108;48.636;9.492;2023-12-04T12:49:32;12.98;;;6.63;;
84021;SDS011;74108;48.636;9.492;2023-12-04T12:52:01;14.43;;;7.00;;
84021;SDS011;74108;48.636;9.492;2023-12-04T12:54:30;16.63;;;8.65;;
84021;SDS011;74108;48.636;9.492;2023-12-04T12:56:58;14.50;;;7.53;;
84021;SDS011;74108;48.636;9.492;2023-12-04T12:59:24;17.50;;;8.35;;
84021;SDS011;74108;48.636;9.492;2023-12-04T13:01:49;16.83;;;7.95;;
84021;SDS011;74108;48.636;9.492;2023-12-04T13:04:15;24.70;;;9.48;;
84021;SDS011;74108;48.636;9.492;2023-12-04T13:06:41;20.33;;;8.80;;
84021;SDS011;74108;48.636;9.492;2023-12-04T13:09:06;17.73;;;8.13;;
84021;SDS011;74108;48.636;9.492;2023-12-04T13:11:32;20.63;;;8.20;;
84021;SDS011;74108;48.636;9.492;2023-12-04T13:13:58;16.88;;;8.07;;
84021;SDS011;74108;48.636;9.492;2023-12-04T13:16:23;18.02;;;8.73;;
84021;SDS011;74108;48.636;9.492;2023-12-04T13:18:49;17.67;;;9.05;;
84021;SDS011;74108;48.636;9.492;2023-12-04T13:21:14;18.90;;;9.15;;
84021;SDS011;74108;48.636;9.492;2023-12-04T13:23:40;21.40;;;9.65;;
84021;SDS011;74108;48.636;9.492;2023-12-04T13:26:05;19.33;;;9.90;;
84021;SDS011;74108;48.636;9.492;2023-12-04T13:28:31;18.08;;;8.55;;
84021;SDS011;74108;48.636;9.492;2023-12-04T13:30:56;19.20;;;9.68;;
84021;SDS011;74108;48.636;9.492;2023-12-04T13:33:22;20.52;;;8.65;;
84021;SDS011;74108;48.636;9.492;2023-12-04T13:35:47;21.60;;;9.27;;
84021;SDS011;74108;48.636;9.492;2023-12-04T13:38:12;22.10;;;9.95;;
84021;SDS011;74108;48.636;9.492;2023-12-04T13:40:39;20.52;;;9.32;;
84021;SDS011;74108;48.636;9.492;2023-12-04T13:43:05;23.40;;;9.90;;
84021;SDS011;74108;48.636;9.492;2023-12-04T13:45:49;22.30;;;10.25;;
84021;SDS011;74108;48.636;9.492;2023-12-04T13:48:16;22.75;;;9.45;;
84021;SDS011;74108;48.636;9.492;2023-12-04T13:50:43;24.92;;;11.48;;
84021;SDS011;74108;48.636;9.492;2023-12-04T13:53:08;20.30;;;10.07;;
84021;SDS011;74108;48.636;9.492;2023-12-04T13:55:34;27.02;;;11.50;;
84021;SDS011;74108;48.636;9.492;2023-12-04T13:58:18;20.75;;;9.95;;
84021;SDS011;74108;48.636;9.492;2023-12-04T14:01:02;22.17;;;9.60;;
84021;SDS011;74108;48.636;9.492;2023-12-04T14:03:37;24.05;;;9.45;;
84021;SDS011;74108;48.636;9.492;2023-12-04T14:06:03;19.92;;;9.23;;
84021;SDS011;74108;48.636;9.492;2023-12-04T14:08:29;23.38;;;10.35;;
84021;SDS011;74108;48.636;9.492;2023-12-04T14:10:54;24.20;;;11.18;;
84021;SDS011;74108;48.636;9.492;2023-12-04T14:13:21;24.52;;;10.70;;
84021;SDS011;74108;48.636;9.492;2023-12-04T14:15:46;24.08;;;9.93;;
84021;SDS011;74108;48.636;9.492;2023-12-04T14:18:12;26.30;;;11.43;;
84021;SDS011;74108;48.636;9.492;2023-12-04T14:20:38;21.92;;;9.38;;
84021;SDS011;74108;48.636;9.492;2023-12-04T14:23:03;27.05;;;11.50;;
84021;SDS011;74108;48.636;9.492;2023-12-04T14:25:30;20.70;;;9.55;;
84021;SDS011;74108;48.636;9.492;2023-12-04T14:27:55;19.52;;;9.85;;
84021;SDS011;74108;48.636;9.492;2023-12-04T14:30:21;34.50;;;18.33;;
84021;SDS011;74108;48.636;9.492;2023-12-04T14:32:46;23.63;;;10.45;;
84021;SDS011;74108;48.636;9.492;2023-12-04T14:35:11;25.77;;;10.95;;
84021;SDS011;74108;48.636;9.492;2023-12-04T14:37:38;22.33;;;10.63;;
84021;SDS011;74108;48.636;9.492;2023-12-04T14:40:04;24.73;;;10.48;;